Agate Beach, Washington
Current Conditions -  °F | °C
As of 2:53 PM on Friday 31 Oct 2014 (Local Time) from KCLM Reporting Station
Overcast Overcast  
Wind Chill: 56°   Ceiling: 5000
Heat Index: 56°   Visibility: 10mi
Dew Point: 46°   Wind: 5mph
Humidity: 69%   Direction: 90°E
Pressure: 29.81"   Gusts: NA
Location:  48.1359°N, 123.734°W
Report Text: KCLM 312153Z AUTO 09004KT 10SM OVC050 13/08 A2981 RMK AO2 SLP094 T01330078
Loading
Personal Weather Stations






























Interactive Weather Map
Tropical Storm Tracking
New forecast layout! Learn more

10-Day Weather Forecast

Advertisements
Track Severe Weather on mobile